Time;durP1;ratioP1;P1;durP2;ratioP2;P2;SDS_P1;SDS_P2;PMS_P1;PMS_P2;Temp;Humidity;BMP_temperature;BMP_pressure;BME280_temperature;BME280_humidity;BME280_pressure;Samples;Min_cycle;Max_cycle;Signal;HPM_P1;HPM_P2
2021/06/02 00:00:40;;;;;;;4.93;4.53;;;;;22.20;100402.00;;;;2045954;28;20211;-52
2021/06/02 00:01:54;;;;;;;5.70;5.20;;;;;22.20;100414.00;;;;2037275;29;20214;-51
2021/06/02 00:02:54;;;;;;;5.88;4.85;;;;;22.20;100416.00;;;;2028275;29;20221;-53
2021/06/02 00:03:55;;;;;;;5.33;4.83;;;;;22.20;100409.00;;;;2023303;29;20694;-52
2021/06/02 00:04:55;;;;;;;5.70;5.20;;;;;22.20;100402.00;;;;2030555;29;20274;-53
2021/06/02 00:05:56;;;;;;;5.30;4.80;;;;;22.00;100403.00;;;;2031506;29;20324;-52
2021/06/02 00:07:05;;;;;;;4.87;4.47;;;;;22.20;100406.00;;;;2047168;29;20226;-51
2021/06/02 00:08:08;;;;;;;5.53;5.03;;;;;22.20;100404.00;;;;2055476;28;20313;-51
2021/06/02 00:09:08;;;;;;;5.50;4.80;;;;;22.20;100405.00;;;;2037925;29;20790;-51
2021/06/02 00:10:10;;;;;;;4.70;4.30;;;;;22.20;100413.00;;;;2044455;28;20233;-52
2021/06/02 00:11:10;;;;;;;5.28;4.70;;;;;22.20;100412.00;;;;2049004;28;20246;-51
2021/06/02 00:12:11;;;;;;;5.20;4.80;;;;;22.20;100404.00;;;;2033162;29;20216;-52
2021/06/02 00:13:11;;;;;;;4.80;4.40;;;;;22.20;100404.00;;;;2031700;29;20221;-52
2021/06/02 00:14:12;;;;;;;4.90;4.50;;;;;22.20;100401.00;;;;2039336;29;20517;-51
2021/06/02 00:15:12;;;;;;;5.17;4.73;;;;;22.20;100406.00;;;;2031343;29;20564;-51
2021/06/02 00:16:13;;;;;;;4.83;4.43;;;;;22.20;100410.00;;;;2036620;29;20265;-52
2021/06/02 00:17:13;;;;;;;5.43;5.00;;;;;22.20;100407.00;;;;2047804;28;20246;-51
2021/06/02 00:18:14;;;;;;;5.40;5.00;;;;;22.20;100399.00;;;;2051757;28;20300;-52
2021/06/02 00:19:15;;;;;;;4.73;4.27;;;;;22.20;100403.00;;;;2041472;29;20462;-51
2021/06/02 00:20:15;;;;;;;4.60;4.30;;;;;22.20;100394.00;;;;2039112;29;20310;-53
2021/06/02 00:21:15;;;;;;;5.30;4.83;;;;;22.20;100404.00;;;;2046350;28;20282;-52
2021/06/02 00:22:16;;;;;;;4.43;4.03;;;;;22.20;100396.00;;;;2047838;28;20221;-52
2021/06/02 00:23:16;;;;;;;5.47;4.97;;;;;22.20;100394.00;;;;2047744;28;20217;-52
2021/06/02 00:24:16;;;;;;;4.90;4.50;;;;;22.20;100389.00;;;;2031290;29;20300;-52
2021/06/02 00:25:17;;;;;;;4.77;4.37;;;;;22.20;100391.00;;;;2031142;29;20272;-52
2021/06/02 00:26:17;;;;;;;5.17;4.77;;;;;22.20;100398.00;;;;2047591;28;20218;-52
2021/06/02 00:27:18;;;;;;;4.20;3.90;;;;;22.20;100393.00;;;;2039043;29;20229;-51
2021/06/02 00:28:18;;;;;;;4.93;4.43;;;;;22.20;100397.00;;;;2038975;29;20340;-52
2021/06/02 00:29:18;;;;;;;4.80;4.40;;;;;22.20;100391.00;;;;2031396;29;20306;-52
2021/06/02 00:30:19;;;;;;;5.00;4.30;;;;;22.20;100388.00;;;;2031378;29;20245;-51
2021/06/02 00:31:19;;;;;;;5.07;4.67;;;;;22.20;100393.00;;;;2038595;29;20246;-52
2021/06/02 00:32:20;;;;;;;4.50;4.10;;;;;22.20;100395.00;;;;2039012;29;20926;-51
2021/06/02 00:33:21;;;;;;;4.70;4.30;;;;;22.20;100391.00;;;;2047504;28;20308;-50
2021/06/02 00:34:21;;;;;;;4.47;4.07;;;;;22.20;100401.00;;;;2047369;28;20490;-52
2021/06/02 00:35:22;;;;;;;4.20;3.90;;;;;22.20;100402.00;;;;2031262;29;21001;-52
2021/06/02 00:36:23;;;;;;;4.83;4.43;;;;;22.20;100394.00;;;;2031128;29;20614;-53
2021/06/02 00:37:24;;;;;;;4.55;4.15;;;;;22.20;100397.00;;;;2031311;29;20304;-52
2021/06/02 00:38:24;;;;;;;4.43;4.10;;;;;22.20;100395.00;;;;2031389;29;20323;-52
2021/06/02 00:39:24;;;;;;;3.73;3.43;;;;;22.20;100397.00;;;;2031531;29;20211;-52
2021/06/02 00:40:34;;;;;;;4.40;4.00;;;;;22.20;100408.00;;;;2040185;29;20212;-51
2021/06/02 00:41:36;;;;;;;4.25;3.95;;;;;22.20;100392.00;;;;2034842;29;20306;-51
2021/06/02 00:42:36;;;;;;;4.10;3.80;;;;;22.20;100390.00;;;;2039685;29;20226;-53
2021/06/02 00:43:37;;;;;;;3.93;3.63;;;;;22.20;100389.00;;;;2047322;28;20578;-52
2021/06/02 00:44:37;;;;;;;4.10;3.80;;;;;22.20;100393.00;;;;2031163;29;20217;-51
2021/06/02 00:45:37;;;;;;;4.57;4.17;;;;;22.20;100397.00;;;;2031098;29;20298;-51
2021/06/02 00:46:38;;;;;;;3.93;3.63;;;;;22.20;100390.00;;;;2038903;29;20318;-52
2021/06/02 00:47:39;;;;;;;4.95;4.55;;;;;22.20;100394.00;;;;2038086;29;20768;-52
2021/06/02 00:48:39;;;;;;;4.43;4.03;;;;;22.20;100387.00;;;;2030869;29;20238;-51
2021/06/02 00:49:39;;;;;;;5.07;3.50;;;;;22.20;100388.00;;;;2031136;29;20214;-50
2021/06/02 00:50:47;;;;;;;4.40;4.00;;;;;22.20;100384.00;;;;2039029;29;20218;-51
2021/06/02 00:51:55;;;;;;;4.32;3.97;;;;;22.00;100395.00;;;;2038206;29;20217;-51
2021/06/02 00:52:56;;;;;;;4.22;3.90;;;;;22.20;100384.00;;;;2039641;29;20215;-51
2021/06/02 00:53:56;;;;;;;4.10;3.80;;;;;22.20;100386.00;;;;2046195;28;20243;-52
2021/06/02 00:54:57;;;;;;;4.00;3.60;;;;;22.20;100385.00;;;;2038424;29;20583;-51
2021/06/02 00:56:05;;;;;;;4.20;3.80;;;;;22.20;100385.00;;;;2038293;29;20214;-50
2021/06/02 00:57:18;;;;;;;3.97;3.67;;;;;22.20;100388.00;;;;2054559;28;20225;-51
2021/06/02 00:58:23;;;;;;;4.25;3.85;;;;;22.20;100389.00;;;;2055040;28;20233;-52
2021/06/02 00:59:43;;;;;;;4.30;3.90;;;;;22.20;100386.00;;;;2046078;29;20218;-52
2021/06/02 01:00:43;;;;;;;4.68;4.28;;;;;22.20;100363.00;;;;2048786;28;20209;-50
2021/06/02 01:01:43;;;;;;;3.90;3.60;;;;;22.20;100373.00;;;;2045574;29;20237;-52
2021/06/02 01:02:50;;;;;;;4.33;4.03;;;;;22.20;100385.00;;;;2037728;29;20226;-51
2021/06/02 01:03:50;;;;;;;5.13;3.67;;;;;22.20;100384.00;;;;2047182;28;20761;-51
2021/06/02 01:04:51;;;;;;;4.37;3.97;;;;;22.20;100384.00;;;;2055640;28;20233;-53
2021/06/02 01:05:52;;;;;;;4.45;4.05;;;;;22.20;100372.00;;;;2046652;29;20673;-51
2021/06/02 01:06:52;;;;;;;4.10;3.70;;;;;22.20;100384.00;;;;2031175;29;20222;-51
2021/06/02 01:07:53;;;;;;;4.40;4.00;;;;;22.20;100377.00;;;;2038952;29;20226;-52
2021/06/02 01:08:56;;;;;;;3.80;3.50;;;;;22.20;100380.00;;;;2054996;28;20622;-53
2021/06/02 01:09:57;;;;;;;4.13;3.72;;;;;22.20;100381.00;;;;2036749;29;20219;-52
2021/06/02 01:10:57;;;;;;;4.20;3.83;;;;;22.20;100379.00;;;;2017320;29;20609;-52
2021/06/02 01:11:58;;;;;;;4.43;4.03;;;;;22.10;100375.00;;;;2029289;29;20223;-52
2021/06/02 01:13:00;;;;;;;4.07;3.77;;;;;22.20;100393.00;;;;2030796;29;20215;-52
2021/06/02 01:14:01;;;;;;;4.38;3.97;;;;;22.20;100382.00;;;;2038444;29;20276;-52
2021/06/02 01:15:01;;;;;;;4.23;3.80;;;;;22.20;100379.00;;;;2047028;28;20271;-52
2021/06/02 01:16:01;;;;;;;3.90;3.60;;;;;22.10;100385.00;;;;2046300;28;20455;-53
2021/06/02 01:17:02;;;;;;;4.23;3.93;;;;;22.20;100382.00;;;;2046648;28;20220;-52
2021/06/02 01:18:02;;;;;;;3.90;3.60;;;;;22.10;100381.00;;;;2038326;29;20227;-50
2021/06/02 01:19:03;;;;;;;3.50;3.30;;;;;22.10;100377.00;;;;2030296;29;20219;-52
2021/06/02 01:20:04;;;;;;;3.87;3.43;;;;;22.20;100379.00;;;;2037310;29;20715;-52
2021/06/02 01:21:10;;;;;;;3.83;3.53;;;;;22.10;100390.00;;;;2046290;28;20225;-52
2021/06/02 01:22:10;;;;;;;3.85;3.55;;;;;22.10;100381.00;;;;2045933;28;20750;-51
2021/06/02 01:23:11;;;;;;;4.40;3.57;;;;;22.10;100380.00;;;;2038443;29;20222;-51
2021/06/02 01:24:12;;;;;;;4.07;3.67;;;;;22.10;100382.00;;;;2042598;29;20232;-53
2021/06/02 01:25:16;;;;;;;4.20;3.90;;;;;22.10;100379.00;;;;2046138;29;20560;-51
2021/06/02 01:26:17;;;;;;;3.95;3.55;;;;;22.10;100385.00;;;;2045356;28;20485;-52
2021/06/02 01:27:18;;;;;;;4.65;4.15;;;;;22.20;100385.00;;;;2054049;28;20264;-52
2021/06/02 01:28:18;;;;;;;3.60;3.27;;;;;22.10;100387.00;;;;2051747;28;20222;-51
2021/06/02 01:29:19;;;;;;;3.60;3.37;;;;;22.10;100380.00;;;;2046616;28;20272;-51
2021/06/02 01:30:20;;;;;;;4.00;3.70;;;;;22.10;100349.00;;;;2046740;28;20223;-52
2021/06/02 01:31:42;;;;;;;3.88;3.58;;;;;22.10;100384.00;;;;2045787;28;20268;-52
2021/06/02 01:32:52;;;;;;;3.70;3.40;;;;;22.10;100385.00;;;;2053418;28;20209;-52
2021/06/02 01:34:04;;;;;;;3.75;3.45;;;;;22.10;100379.00;;;;2054159;28;20252;-51
2021/06/02 01:35:30;;;;;;;3.97;3.67;;;;;22.10;100392.00;;;;2054889;28;20743;-52
2021/06/02 01:36:46;;;;;;;4.22;3.83;;;;;22.10;100386.00;;;;2053701;28;20233;-51
2021/06/02 01:38:15;;;;;;;4.07;3.78;;;;;22.10;100381.00;;;;2054125;28;20218;-52
2021/06/02 01:40:03;;;;;;;4.57;4.18;;;;;22.10;100385.00;;;;2045507;29;20683;-52
2021/06/02 01:41:09;;;;;;;4.35;4.05;;;;;22.10;100386.00;;;;2015311;29;20223;-51
2021/06/02 01:42:32;;;;;;;4.28;3.97;;;;;22.10;100384.00;;;;2021629;29;20256;-50
2021/06/02 01:44:07;;;;;;;3.60;3.40;;;;;22.10;100378.00;;;;2036442;28;20217;-53
2021/06/02 01:45:25;;;;;;;3.40;3.13;;;;;22.10;100384.00;;;;2054264;28;20704;-52
2021/06/02 01:46:43;;;;;;;4.97;3.40;;;;;22.10;100385.00;;;;2045549;29;20237;-51
2021/06/02 01:48:08;;;;;;;3.78;3.47;;;;;22.10;100384.00;;;;2048434;28;20306;-53
2021/06/02 01:49:27;;;;;;;3.72;3.42;;;;;22.10;100380.00;;;;2045898;29;20240;-52
2021/06/02 01:50:53;;;;;;;3.65;3.30;;;;;22.10;100382.00;;;;2051137;28;20654;-51
2021/06/02 01:52:31;;;;;;;3.75;3.40;;;;;22.10;100380.00;;;;2053877;28;20221;-52
2021/06/02 01:53:47;;;;;;;3.55;3.25;;;;;22.10;100379.00;;;;2054093;28;20274;-52
2021/06/02 01:55:20;;;;;;;3.97;3.53;;;;;22.10;100381.00;;;;2045975;28;20563;-52
2021/06/02 01:56:48;;;;;;;3.60;3.30;;;;;22.10;100379.00;;;;2045335;29;20252;-52
2021/06/02 01:57:51;;;;;;;3.53;3.33;;;;;22.10;100377.00;;;;2042858;28;20234;-52
2021/06/02 01:59:07;;;;;;;3.88;3.58;;;;;22.10;100382.00;;;;2045939;29;20336;-50
2021/06/02 02:00:20;;;;;;;4.10;3.80;;;;;22.10;100383.00;;;;2038329;29;20226;-51
2021/06/02 02:01:51;;;;;;;4.20;3.80;;;;;22.10;100386.00;;;;2034269;29;20247;-53
2021/06/02 02:03:29;;;;;;;4.00;3.70;;;;;22.10;100385.00;;;;2047371;28;20312;-52
2021/06/02 02:05:08;;;;;;;4.10;3.80;;;;;21.80;100391.00;;;;2054828;28;20226;-52
2021/06/02 02:06:23;;;;;;;3.83;3.53;;;;;22.10;100384.00;;;;2029311;29;20224;-53
2021/06/02 02:07:33;;;;;;;3.85;3.55;;;;;22.10;100376.00;;;;2044632;28;20295;-51
2021/06/02 02:08:44;;;;;;;4.35;3.95;;;;;22.10;100385.00;;;;2050802;28;20260;-53
2021/06/02 02:10:09;;;;;;;3.30;3.10;;;;;22.10;100374.00;;;;2042395;29;20317;-53
2021/06/02 02:11:34;;;;;;;4.10;3.78;;;;;22.10;100380.00;;;;2043157;28;20299;-51
2021/06/02 02:12:37;;;;;;;3.45;3.22;;;;;22.10;100383.00;;;;2047469;28;20734;-52
2021/06/02 02:13:57;;;;;;;7.13;3.95;;;;;22.10;100381.00;;;;2046113;28;20675;-53
2021/06/02 02:15:28;;;;;;;4.05;3.65;;;;;22.10;100377.00;;;;2052006;28;20221;-52
2021/06/02 02:16:47;;;;;;;4.00;3.70;;;;;22.10;100388.00;;;;2053997;28;21233;-50
2021/06/02 02:18:12;;;;;;;3.72;3.42;;;;;22.10;100369.00;;;;2054150;28;20318;-51
2021/06/02 02:19:13;;;;;;;4.18;3.88;;;;;22.10;100382.00;;;;2054197;28;20216;-53
2021/06/02 02:20:23;;;;;;;4.23;3.50;;;;;22.10;100373.00;;;;2054612;28;20222;-54
2021/06/02 02:21:27;;;;;;;3.58;3.28;;;;;22.10;100380.00;;;;2053344;28;20226;-53
2021/06/02 02:22:59;;;;;;;4.10;3.70;;;;;22.10;100380.00;;;;2045642;29;20243;-51
2021/06/02 02:24:10;;;;;;;4.57;4.18;;;;;22.00;100380.00;;;;2049610;28;20213;-50
2021/06/02 02:25:23;;;;;;;3.95;3.55;;;;;22.10;100374.00;;;;2051457;28;20577;-53
2021/06/02 02:26:35;;;;;;;4.10;3.80;;;;;22.00;100378.00;;;;2045506;29;20227;-52
2021/06/02 02:27:42;;;;;;;4.20;3.90;;;;;22.00;100374.00;;;;2045204;28;20218;-52
2021/06/02 02:29:19;;;;;;;3.72;3.42;;;;;22.00;100381.00;;;;2046091;28;20305;-50
2021/06/02 02:30:23;;;;;;;3.95;3.65;;;;;22.10;100373.00;;;;2051598;28;20317;-52
2021/06/02 02:31:35;;;;;;;3.72;3.38;;;;;22.10;100373.00;;;;2044556;29;20703;-52
2021/06/02 02:32:51;;;;;;;3.78;3.58;;;;;22.10;100373.00;;;;2047511;28;20217;-52
2021/06/02 02:34:05;;;;;;;4.10;3.70;;;;;22.10;100372.00;;;;2045512;28;20226;-53
2021/06/02 02:35:15;;;;;;;4.30;3.90;;;;;22.00;100365.00;;;;2039594;29;20217;-52
2021/06/02 02:36:26;;;;;;;3.50;3.20;;;;;22.00;100373.00;;;;2047345;28;20304;-52
2021/06/02 02:37:34;;;;;;;5.97;3.38;;;;;22.00;100361.00;;;;2045587;29;20214;-52
2021/06/02 02:38:48;;;;;;;3.60;3.30;;;;;22.10;100364.00;;;;2039012;29;20231;-52
2021/06/02 02:40:03;;;;;;;4.07;3.75;;;;;22.10;100369.00;;;;2040618;29;20217;-53
2021/06/02 02:41:17;;;;;;;4.20;3.83;;;;;22.10;100373.00;;;;2040034;29;20221;-53
2021/06/02 02:42:22;;;;;;;4.13;3.83;;;;;21.90;100362.00;;;;2045524;29;20633;-50
2021/06/02 02:44:00;;;;;;;3.80;3.40;;;;;22.00;100364.00;;;;2045855;28;20241;-51
2021/06/02 02:45:24;;;;;;;5.57;3.35;;;;;22.10;100372.00;;;;2046582;28;20232;-51
2021/06/02 02:46:30;;;;;;;4.50;3.30;;;;;22.00;100367.00;;;;2028581;29;20617;-53
2021/06/02 02:47:44;;;;;;;4.28;3.83;;;;;22.00;100370.00;;;;2052819;28;20225;-52
2021/06/02 02:49:21;;;;;;;3.83;3.53;;;;;22.00;100374.00;;;;2038086;29;20691;-53
2021/06/02 02:50:38;;;;;;;4.07;3.75;;;;;22.00;100364.00;;;;2048282;28;20224;-52
2021/06/02 02:51:44;;;;;;;4.38;4.07;;;;;22.00;100375.00;;;;2037392;29;20230;-51
2021/06/02 02:53:02;;;;;;;3.90;3.60;;;;;22.00;100371.00;;;;2040918;28;20634;-51
2021/06/02 02:54:05;;;;;;;4.20;3.47;;;;;22.00;100367.00;;;;2054312;28;20221;-52
2021/06/02 02:55:27;;;;;;;5.25;4.10;;;;;22.00;100368.00;;;;2054507;28;20220;-52
2021/06/02 02:57:01;;;;;;;3.70;3.50;;;;;22.00;100372.00;;;;2054299;28;20600;-52
2021/06/02 02:58:06;;;;;;;3.90;3.60;;;;;22.00;100372.00;;;;2054243;28;20276;-52
2021/06/02 02:59:11;;;;;;;3.63;3.42;;;;;21.90;100377.00;;;;2045747;29;20213;-52
2021/06/02 03:00:52;;;;;;;4.10;3.80;;;;;22.00;100371.00;;;;2038885;29;20614;-51
2021/06/02 03:01:58;;;;;;;4.03;3.25;;;;;22.00;100379.00;;;;2045515;28;20223;-53
2021/06/02 03:03:10;;;;;;;3.25;3.05;;;;;22.00;100376.00;;;;2034113;29;20219;-51
2021/06/02 03:04:23;;;;;;;3.88;3.58;;;;;22.00;100377.00;;;;2025538;29;20263;-50
2021/06/02 03:05:28;;;;;;;4.13;3.63;;;;;22.00;100379.00;;;;2041307;28;20253;-51
2021/06/02 03:06:34;;;;;;;4.22;3.85;;;;;22.00;100381.00;;;;2045483;29;20220;-52
2021/06/02 03:07:35;;;;;;;4.20;3.90;;;;;22.00;100376.00;;;;2038520;29;20226;-52
2021/06/02 03:08:52;;;;;;;4.00;3.70;;;;;22.00;100365.00;;;;2037307;29;20221;-51
2021/06/02 03:09:57;;;;;;;3.85;3.55;;;;;22.00;100358.00;;;;2033132;29;20459;-52
2021/06/02 03:11:04;;;;;;;4.05;3.65;;;;;22.00;100372.00;;;;2034320;29;20229;-52
2021/06/02 03:12:16;;;;;;;3.95;3.65;;;;;22.00;100371.00;;;;2034165;29;20256;-52
2021/06/02 03:13:22;;;;;;;3.85;3.45;;;;;22.00;100356.00;;;;2029935;29;20214;-51
2021/06/02 03:14:25;;;;;;;3.78;3.47;;;;;22.00;100369.00;;;;2031344;29;20219;-52
2021/06/02 03:15:33;;;;;;;4.18;3.70;;;;;22.00;100361.00;;;;2046452;28;20218;-51
2021/06/02 03:16:37;;;;;;;3.78;3.47;;;;;22.00;100374.00;;;;2045410;29;20281;-52
2021/06/02 03:17:45;;;;;;;4.03;3.72;;;;;22.00;100350.00;;;;2045747;28;20960;-51
2021/06/02 03:19:05;;;;;;;3.88;3.60;;;;;22.00;100363.00;;;;2037326;29;20225;-50
2021/06/02 03:20:21;;;;;;;4.00;3.70;;;;;22.00;100371.00;;;;2026611;29;20693;-52
2021/06/02 03:21:27;;;;;;;3.83;3.53;;;;;22.00;100374.00;;;;2042304;28;20216;-51
2021/06/02 03:22:41;;;;;;;4.40;4.10;;;;;22.00;100367.00;;;;2045184;29;20222;-51
2021/06/02 03:23:53;;;;;;;3.72;3.42;;;;;22.00;100381.00;;;;2046763;28;20310;-52
2021/06/02 03:25:02;;;;;;;3.85;3.55;;;;;22.00;100373.00;;;;2053436;28;20218;-50
2021/06/02 03:26:13;;;;;;;3.75;3.45;;;;;22.00;100374.00;;;;2045418;29;20610;-52
2021/06/02 03:27:26;;;;;;;4.00;3.60;;;;;22.00;100371.00;;;;2038395;29;20226;-51
2021/06/02 03:29:04;;;;;;;3.75;3.45;;;;;22.00;100375.00;;;;2038704;29;20297;-51
2021/06/02 03:30:12;;;;;;;4.00;3.70;;;;;21.90;100376.00;;;;2050943;28;20221;-50
2021/06/02 03:31:19;;;;;;;4.25;3.85;;;;;22.00;100387.00;;;;2053500;28;20730;-51
2021/06/02 03:32:40;;;;;;;4.40;4.05;;;;;22.00;100379.00;;;;2054419;28;20656;-52
2021/06/02 03:34:16;;;;;;;4.10;3.70;;;;;22.00;100379.00;;;;2045305;28;20341;-51
2021/06/02 03:35:18;;;;;;;4.03;3.65;;;;;22.00;100373.00;;;;2041803;29;20217;-52
2021/06/02 03:37:01;;;;;;;4.40;3.60;;;;;22.00;100377.00;;;;2045025;29;20754;-51
2021/06/02 03:38:23;;;;;;;4.38;3.72;;;;;21.90;100380.00;;;;2043195;28;20220;-51
2021/06/02 03:39:49;;;;;;;4.03;3.63;;;;;22.00;100383.00;;;;2047639;28;20319;-52
2021/06/02 03:40:55;;;;;;;3.35;3.13;;;;;22.00;100380.00;;;;2048348;28;20766;-51
2021/06/02 03:42:47;;;;;;;3.85;3.50;;;;;22.00;100377.00;;;;2047928;28;20226;-55
2021/06/02 03:43:48;;;;;;;4.38;3.58;;;;;22.00;100383.00;;;;2030579;29;20243;-52
2021/06/02 03:45:22;;;;;;;3.90;3.60;;;;;22.00;100379.00;;;;2023630;29;20224;-50
2021/06/02 03:46:50;;;;;;;3.70;3.40;;;;;22.00;100385.00;;;;2027530;29;20791;-51
2021/06/02 03:47:53;;;;;;;3.90;3.60;;;;;22.00;100377.00;;;;2023319;29;20227;-52
2021/06/02 03:49:12;;;;;;;3.65;3.45;;;;;22.00;100375.00;;;;2027007;28;20242;-52
2021/06/02 03:50:25;;;;;;;3.75;3.45;;;;;22.00;100380.00;;;;2045923;29;20280;-53
2021/06/02 03:51:29;;;;;;;3.72;3.40;;;;;22.00;100379.00;;;;2042365;28;20228;-51
2021/06/02 03:52:41;;;;;;;4.05;3.67;;;;;22.00;100382.00;;;;2047591;28;20225;-52
2021/06/02 03:54:06;;;;;;;3.83;3.53;;;;;22.00;100384.00;;;;2048004;28;20219;-52
2021/06/02 03:55:13;;;;;;;4.13;3.83;;;;;22.00;100380.00;;;;2044716;29;20213;-51
2021/06/02 03:56:42;;;;;;;4.25;3.90;;;;;21.90;100383.00;;;;2050654;28;20219;-52
2021/06/02 03:57:44;;;;;;;4.00;3.70;;;;;22.00;100382.00;;;;2049992;28;20317;-52
2021/06/02 03:58:51;;;;;;;3.95;3.65;;;;;21.90;100382.00;;;;2047000;29;20896;-51
2021/06/02 04:00:34;;;;;;;4.15;3.65;;;;;22.00;100383.00;;;;2048073;28;20326;-52
2021/06/02 04:01:45;;;;;;;4.05;3.60;;;;;21.90;100382.00;;;;2021600;29;20264;-52
2021/06/02 04:03:01;;;;;;;3.72;3.42;;;;;21.90;100379.00;;;;2023282;29;20207;-53
2021/06/02 04:04:01;;;;;;;4.00;3.70;;;;;21.90;100380.00;;;;2015039;29;20234;-52
2021/06/02 04:05:29;;;;;;;4.43;4.10;;;;;22.00;100388.00;;;;2016779;29;20682;-51
2021/06/02 04:06:44;;;;;;;4.10;3.78;;;;;21.90;100373.00;;;;2023148;29;20220;-54
2021/06/02 04:08:12;;;;;;;3.80;3.45;;;;;22.00;100377.00;;;;2047252;29;20709;-51
2021/06/02 04:09:20;;;;;;;4.05;3.75;;;;;21.90;100349.00;;;;2042630;29;20618;-51
2021/06/02 04:10:25;;;;;;;3.88;3.58;;;;;21.90;100381.00;;;;2025482;29;20280;-51
2021/06/02 04:11:44;;;;;;;4.07;3.70;;;;;21.90;100387.00;;;;2033515;29;20250;-52
2021/06/02 04:13:07;;;;;;;3.42;3.20;;;;;21.90;100385.00;;;;2043534;29;20339;-51
2021/06/02 04:14:08;;;;;;;3.38;3.17;;;;;21.90;100386.00;;;;2042035;29;20222;-52
2021/06/02 04:15:10;;;;;;;4.50;4.10;;;;;22.00;100383.00;;;;2047302;29;20216;-51
2021/06/02 04:16:14;;;;;;;3.92;3.63;;;;;22.00;100380.00;;;;2055907;28;20214;-51
2021/06/02 04:17:14;;;;;;;6.10;4.20;;;;;22.00;100384.00;;;;2047076;29;20214;-52
2021/06/02 04:18:18;;;;;;;3.97;3.67;;;;;22.00;100380.00;;;;2031383;29;20220;-51
2021/06/02 04:19:18;;;;;;;3.72;3.42;;;;;22.00;100389.00;;;;2031934;29;20213;-51
2021/06/02 04:20:19;;;;;;;3.67;3.33;;;;;22.00;100381.00;;;;2038909;29;20224;-51
2021/06/02 04:21:22;;;;;;;4.20;3.83;;;;;21.90;100382.00;;;;2034193;29;20223;-53
2021/06/02 04:22:23;;;;;;;3.55;3.25;;;;;22.00;100383.00;;;;2039120;29;20774;-51
2021/06/02 04:23:23;;;;;;;3.53;3.22;;;;;22.00;100379.00;;;;2039505;29;20217;-53
2021/06/02 04:24:24;;;;;;;4.40;3.83;;;;;22.00;100383.00;;;;2038806;29;20214;-52
2021/06/02 04:25:24;;;;;;;3.90;3.60;;;;;22.00;100380.00;;;;2031084;29;20232;-51
2021/06/02 04:26:29;;;;;;;3.73;3.43;;;;;22.00;100387.00;;;;2023558;29;20220;-52
2021/06/02 04:27:29;;;;;;;5.22;3.75;;;;;22.00;100384.00;;;;2032198;29;20223;-54
2021/06/02 04:28:36;;;;;;;4.70;3.90;;;;;22.00;100385.00;;;;2047518;28;20219;-51
2021/06/02 04:29:36;;;;;;;4.00;3.70;;;;;22.00;100383.00;;;;2043043;29;20249;-52
2021/06/02 04:30:37;;;;;;;3.90;3.60;;;;;22.00;100384.00;;;;2039157;29;20215;-51
2021/06/02 04:31:45;;;;;;;4.28;3.97;;;;;22.00;100394.00;;;;2046378;28;20823;-53
2021/06/02 04:32:47;;;;;;;4.03;3.53;;;;;22.00;100385.00;;;;2047053;29;20247;-53
2021/06/02 04:33:47;;;;;;;4.28;3.83;;;;;22.00;100374.00;;;;2046600;28;20253;-50
2021/06/02 04:34:47;;;;;;;3.73;3.43;;;;;22.00;100393.00;;;;2039041;29;20723;-51
2021/06/02 04:35:51;;;;;;;4.10;3.80;;;;;22.00;100389.00;;;;2023614;29;20592;-51
2021/06/02 04:36:55;;;;;;;3.72;3.40;;;;;22.00;100389.00;;;;2039169;28;20804;-51
2021/06/02 04:37:56;;;;;;;3.95;3.65;;;;;22.00;100395.00;;;;2046990;29;20918;-51
2021/06/02 04:38:57;;;;;;;3.97;3.67;;;;;22.00;100391.00;;;;2031049;29;20234;-52
2021/06/02 04:39:58;;;;;;;3.80;3.50;;;;;22.00;100389.00;;;;2038860;28;20219;-50
2021/06/02 04:41:00;;;;;;;3.90;3.60;;;;;22.00;100386.00;;;;2042326;29;20218;-53
2021/06/02 04:42:01;;;;;;;3.78;3.47;;;;;22.00;100391.00;;;;2047054;28;20785;-53
2021/06/02 04:43:02;;;;;;;4.43;4.03;;;;;22.00;100394.00;;;;2047179;28;20218;-51
2021/06/02 04:44:02;;;;;;;4.17;3.87;;;;;21.90;100387.00;;;;2043104;29;20324;-54
2021/06/02 04:45:04;;;;;;;5.40;3.70;;;;;21.80;100387.00;;;;2031469;29;20213;-51
2021/06/02 04:46:06;;;;;;;4.95;3.90;;;;;21.80;100381.00;;;;2038979;28;20218;-54
2021/06/02 04:47:06;;;;;;;3.85;3.53;;;;;21.90;100387.00;;;;2055261;28;20218;-55
2021/06/02 04:48:07;;;;;;;4.00;3.70;;;;;21.90;100386.00;;;;2046821;29;20279;-54
2021/06/02 04:49:07;;;;;;;3.90;3.47;;;;;21.90;100376.00;;;;2038632;29;20210;-51
2021/06/02 04:50:34;;;;;;;4.00;3.67;;;;;21.90;100383.00;;;;2046495;28;20218;-50
2021/06/02 04:52:00;;;;;;;4.85;3.60;;;;;21.90;100385.00;;;;2047116;28;20245;-52
2021/06/02 04:53:03;;;;;;;3.78;3.38;;;;;21.90;100388.00;;;;2053705;28;20226;-52
2021/06/02 04:54:30;;;;;;;4.13;3.72;;;;;21.90;100386.00;;;;2055149;28;20255;-53
2021/06/02 04:56:02;;;;;;;4.05;3.75;;;;;22.00;100387.00;;;;2055276;28;20227;-54
2021/06/02 04:57:10;;;;;;;3.83;3.53;;;;;22.00;100389.00;;;;2046410;29;20273;-52
2021/06/02 04:58:20;;;;;;;4.50;3.50;;;;;22.00;100391.00;;;;2039613;29;20286;-54
2021/06/02 04:59:27;;;;;;;3.33;3.13;;;;;22.00;100387.00;;;;2046517;29;20240;-54
2021/06/02 05:00:57;;;;;;;5.35;3.72;;;;;22.00;100385.00;;;;2036427;29;20214;-50
2021/06/02 05:02:35;;;;;;;3.78;3.40;;;;;22.00;100392.00;;;;2036666;29;20244;-52
2021/06/02 05:03:54;;;;;;;4.30;3.90;;;;;22.00;100390.00;;;;2051836;28;20729;-50
2021/06/02 05:05:04;;;;;;;4.88;3.60;;;;;22.00;100391.00;;;;2054808;28;20249;-49
2021/06/02 05:06:13;;;;;;;9.43;4.80;;;;;21.90;100397.00;;;;2038850;29;20221;-50
2021/06/02 05:07:38;;;;;;;4.50;4.10;;;;;22.00;100391.00;;;;2040879;28;20651;-51
2021/06/02 05:08:52;;;;;;;3.80;3.47;;;;;21.90;100391.00;;;;2053900;28;20229;-49
2021/06/02 05:09:55;;;;;;;5.95;3.75;;;;;21.90;100394.00;;;;2045083;29;20227;-51
2021/06/02 05:11:23;;;;;;;4.20;3.80;;;;;21.90;100401.00;;;;2042897;28;20223;-51
2021/06/02 05:12:42;;;;;;;4.13;3.83;;;;;21.90;100395.00;;;;2049071;28;20225;-51
2021/06/02 05:14:16;;;;;;;4.45;4.05;;;;;22.00;100403.00;;;;2053512;28;20241;-52
2021/06/02 05:15:54;;;;;;;3.78;3.47;;;;;21.70;100401.00;;;;2043873;28;20211;-52
2021/06/02 05:17:25;;;;;;;3.72;3.42;;;;;22.00;100401.00;;;;2050780;28;20217;-50
2021/06/02 05:18:52;;;;;;;4.80;4.03;;;;;22.00;100400.00;;;;2054627;28;20221;-54
2021/06/02 05:20:20;;;;;;;4.00;3.70;;;;;22.00;100402.00;;;;2037931;29;20806;-51
2021/06/02 05:22:14;;;;;;;4.22;3.83;;;;;22.00;100400.00;;;;2038287;28;20218;-52
2021/06/02 05:23:32;;;;;;;4.05;3.75;;;;;22.00;100398.00;;;;2032122;29;20263;-52
2021/06/02 05:24:41;;;;;;;4.70;4.32;;;;;21.90;100391.00;;;;2046110;28;20223;-50
2021/06/02 05:26:19;;;;;;;8.50;6.93;;;;;21.90;100401.00;;;;2045757;28;20218;-52
2021/06/02 05:27:33;;;;;;;11.25;9.98;;;;;21.90;100397.00;;;;2053519;28;20219;-54
2021/06/02 05:28:58;;;;;;;11.48;10.00;;;;;22.00;100393.00;;;;2042671;29;20218;-50
2021/06/02 05:30:35;;;;;;;10.05;9.00;;;;;22.00;100397.00;;;;2046919;28;20712;-53
2021/06/02 05:31:58;;;;;;;23.50;19.17;;;;;22.00;100400.00;;;;2040442;29;20227;-54
2021/06/02 05:33:29;;;;;;;22.90;19.23;;;;;22.00;100402.00;;;;2048622;28;20227;-52
2021/06/02 05:34:50;;;;;;;23.58;19.77;;;;;22.00;100398.00;;;;2045578;29;20219;-55
2021/06/02 05:36:12;;;;;;;25.00;21.42;;;;;22.00;100405.00;;;;2048842;28;20687;-50
2021/06/02 05:37:47;;;;;;;30.52;25.52;;;;;22.00;100403.00;;;;2053480;28;20694;-51
2021/06/02 05:39:09;;;;;;;33.15;27.20;;;;;22.00;100398.00;;;;2045760;29;20234;-54
2021/06/02 05:40:47;;;;;;;30.98;26.23;;;;;22.00;100404.00;;;;2036367;29;20261;-52
2021/06/02 05:42:01;;;;;;;33.78;28.92;;;;;22.00;100406.00;;;;2046728;28;20258;-50
2021/06/02 05:43:04;;;;;;;33.50;28.70;;;;;22.00;100407.00;;;;2046007;29;20226;-50
2021/06/02 05:44:29;;;;;;;33.22;28.52;;;;;22.00;100407.00;;;;2044268;28;20257;-51
2021/06/02 05:46:17;;;;;;;39.50;33.58;;;;;22.00;100407.00;;;;2054031;28;20218;-51
2021/06/02 05:47:51;;;;;;;38.75;32.65;;;;;22.00;100414.00;;;;2036449;29;20215;-51
2021/06/02 05:49:06;;;;;;;37.55;33.42;;;;;22.00;100409.00;;;;2028866;29;20284;-50
2021/06/02 05:50:25;;;;;;;38.88;32.92;;;;;22.00;100408.00;;;;2042877;29;20224;-51
2021/06/02 05:51:51;;;;;;;44.03;36.63;;;;;22.00;100397.00;;;;2047321;28;20647;-51
2021/06/02 05:53:28;;;;;;;38.88;32.00;;;;;22.00;100427.00;;;;2037719;29;20306;-50